Terminal Aerodrome Forecast
Issued by NWS Sterling, VA

Current Version | Previous Version | Text Only | Print | Product List | Glossary Off
Versions: 1 2 3 4 5 6 7 8 9 10 11 12 13 14 15 16 17 18 19 20 21 22 23

790
FTUS41 KLWX 112116 AAA
TAFIAD
TAF AMD
KIAD 112116Z 1121/1224 30017G26KT P6SM SCT050
     FM120000 30008KT P6SM FEW250
     FM120800 27004KT P6SM SCT150
     FM121200 VRB03KT P6SM BKN110
     FM121800 20007KT P6SM BKN060=

USA.gov is the U.S. government's official web portal to all federal, state and local government web resources and services.